createdAt,value
2023-02-25T00:02:11.833Z,62.64
2023-02-25T00:07:13.257Z,62.78
2023-02-25T00:12:15.026Z,61.52
2023-02-25T00:17:16.477Z,61.98
2023-02-25T00:22:18.264Z,62.81
2023-02-25T00:27:19.857Z,63.46
2023-02-25T00:32:23.058Z,63.91
2023-02-25T00:37:24.501Z,63.77
2023-02-25T00:42:26.006Z,63.51
2023-02-25T00:47:27.618Z,63.12
2023-02-25T00:52:30.061Z,62.36
2023-02-25T00:57:31.601Z,61.98
2023-02-25T01:02:33.178Z,61.74
2023-02-25T01:07:34.879Z,62.46
2023-02-25T01:12:37.273Z,61.34
2023-02-25T01:17:38.595Z,61.61
2023-02-25T01:22:41.983Z,61.95
2023-02-25T01:27:43.912Z,62.18
2023-02-25T01:32:46.019Z,62.24
2023-02-25T01:37:49.861Z,62.19
2023-02-25T01:42:51.340Z,63.01
2023-02-25T01:48:00.048Z,63.19
2023-02-25T01:53:03.682Z,62.69
2023-02-25T01:58:05.163Z,62.22
2023-02-25T02:03:15.886Z,62.26
2023-02-25T02:08:17.691Z,62.09
2023-02-25T02:13:20.841Z,62.39
2023-02-25T02:18:22.615Z,61.98
2023-02-25T02:23:57.005Z,61.02
2023-02-25T02:29:17.411Z,59.31
2023-02-25T02:34:36.871Z,57.33
2023-02-25T02:39:59.500Z,56.55
2023-02-25T02:45:10.100Z,56.04
2023-02-25T02:50:20.258Z,55.28
2023-02-25T02:55:31.446Z,54.18
2023-02-25T03:00:39.829Z,54.32
2023-02-25T03:05:44.264Z,55.83
2023-02-25T03:10:45.771Z,56.33
2023-02-25T03:15:49.136Z,56.80
2023-02-25T03:20:53.438Z,57.17
2023-02-25T03:26:17.980Z,57.16
2023-02-25T03:31:25.488Z,57.51
2023-02-25T03:36:32.402Z,56.75
2023-02-25T03:41:38.342Z,57.72
2023-02-25T03:46:44.046Z,57.36
2023-02-25T03:51:49.138Z,57.73
2023-02-25T03:56:51.564Z,58.14
2023-02-25T04:01:54.540Z,58.05
2023-02-25T04:06:56.112Z,58.33
2023-02-25T04:11:57.636Z,59.00
2023-02-25T04:16:59.340Z,58.60
2023-02-25T04:22:01.024Z,58.28
2023-02-25T04:27:02.723Z,58.13
2023-02-25T04:32:05.112Z,58.47
2023-02-25T04:37:06.915Z,58.60
2023-02-25T04:42:08.446Z,58.89
2023-02-25T04:47:10.262Z,59.10
2023-02-25T04:52:13.203Z,59.73
2023-02-25T04:57:14.920Z,60.37
2023-02-25T05:02:16.688Z,60.09
2023-02-25T05:07:18.376Z,61.02
2023-02-25T05:12:19.718Z,60.91
2023-02-25T05:17:21.148Z,60.96
2023-02-25T05:22:22.800Z,61.45
2023-02-25T05:27:24.274Z,61.40
2023-02-25T05:32:25.769Z,61.38
2023-02-25T05:37:27.277Z,61.50
2023-02-25T05:42:29.777Z,61.34
2023-02-25T05:47:31.219Z,61.38
2023-02-25T05:52:32.932Z,60.92
2023-02-25T05:57:34.668Z,60.72
2023-02-25T06:02:36.874Z,60.68
2023-02-25T06:07:38.320Z,60.51
2023-02-25T06:12:40.013Z,61.05
2023-02-25T06:17:41.442Z,61.73
2023-02-25T06:22:43.349Z,61.59
2023-02-25T06:27:44.810Z,61.66
2023-02-25T06:32:46.409Z,61.11
2023-02-25T06:37:47.795Z,61.43
2023-02-25T06:42:50.165Z,61.58
2023-02-25T06:47:51.727Z,61.76
2023-02-25T06:52:53.944Z,61.13
2023-02-25T06:57:55.322Z,60.87
2023-02-25T07:02:57.995Z,61.32
2023-02-25T07:07:59.626Z,61.73
2023-02-25T07:13:01.062Z,61.78
2023-02-25T07:18:03.658Z,61.98
2023-02-25T07:23:06.228Z,62.08
2023-02-25T07:28:08.013Z,62.56
2023-02-25T07:33:09.472Z,62.05
2023-02-25T07:38:13.153Z,61.93
2023-02-25T07:43:14.928Z,61.67
2023-02-25T07:48:16.696Z,61.46
2023-02-25T07:53:18.907Z,61.24
2023-02-25T07:58:20.648Z,61.06
2023-02-25T08:03:22.114Z,61.96
2023-02-25T08:08:23.563Z,61.86
2023-02-25T08:13:25.049Z,61.77
2023-02-25T08:18:26.450Z,62.14
2023-02-25T08:23:28.032Z,62.57
2023-02-25T08:28:35.955Z,62.37
2023-02-25T08:33:44.373Z,62.51
2023-02-25T08:38:46.057Z,62.22
2023-02-25T08:43:55.081Z,61.62
2023-02-25T08:48:57.525Z,61.96
2023-02-25T08:53:59.763Z,61.84
2023-02-25T08:59:01.683Z,61.95
2023-02-25T09:04:03.118Z,61.27
2023-02-25T09:09:05.904Z,60.11
2023-02-25T09:14:07.783Z,59.11
2023-02-25T09:19:10.818Z,58.52
2023-02-25T09:24:12.697Z,58.56
2023-02-25T09:29:14.810Z,57.71
2023-02-25T09:34:16.372Z,57.58
2023-02-25T09:39:17.828Z,57.17
2023-02-25T09:44:49.567Z,56.52
2023-02-25T09:49:56.019Z,55.01
2023-02-25T09:54:57.780Z,53.28
2023-02-25T09:59:59.604Z,50.86
2023-02-25T10:05:21.740Z,50.29
2023-02-25T10:10:25.965Z,49.81
2023-02-25T10:15:35.618Z,49.48
2023-02-25T10:20:39.730Z,50.74
2023-02-25T10:25:50.394Z,50.28
2023-02-25T10:31:02.043Z,50.12
2023-02-25T10:36:14.848Z,49.99
2023-02-25T10:41:17.466Z,51.13
2023-02-25T10:46:35.737Z,51.41
2023-02-25T10:51:37.291Z,50.68
2023-02-25T10:56:45.024Z,48.71
2023-02-25T11:01:48.244Z,48.03
2023-02-25T11:06:50.064Z,49.19
2023-02-25T11:12:09.573Z,49.87
2023-02-25T11:17:13.842Z,50.77
2023-02-25T11:22:31.695Z,51.07
2023-02-25T11:27:39.785Z,51.33
2023-02-25T11:32:49.238Z,53.51
2023-02-25T11:37:50.925Z,57.80
2023-02-25T11:48:29.572Z,48.52
2023-02-25T11:53:47.794Z,36.49
2023-02-25T11:59:04.856Z,37.67
2023-02-25T12:04:18.169Z,35.82
2023-02-25T12:09:49.596Z,37.90
2023-02-25T12:15:29.737Z,40.75
2023-02-25T12:21:09.200Z,43.90
2023-02-25T12:26:50.250Z,46.25
2023-02-25T12:32:03.656Z,47.88
2023-02-25T12:37:14.861Z,47.18
2023-02-25T12:42:38.019Z,48.18
2023-02-25T12:47:54.609Z,42.14
2023-02-25T12:53:14.978Z,39.23
2023-02-25T12:58:35.660Z,39.71
2023-02-25T13:04:12.223Z,29.23
2023-02-25T13:09:26.348Z,34.66
2023-02-25T13:14:59.122Z,35.71
2023-02-25T13:20:38.213Z,36.54
2023-02-25T13:25:57.828Z,40.05
2023-02-25T13:31:08.757Z,41.34
2023-02-25T13:36:44.246Z,41.98
2023-02-25T13:41:57.733Z,42.59
2023-02-25T13:47:21.236Z,36.98
2023-02-25T13:52:36.749Z,33.68
2023-02-25T13:58:18.004Z,40.29
2023-02-25T14:03:48.039Z,45.05
2023-02-25T14:09:19.879Z,45.07
2023-02-25T14:14:39.558Z,46.54
2023-02-25T14:20:01.110Z,51.98
2023-02-25T14:25:18.639Z,54.84
2023-02-25T14:30:33.140Z,55.95
2023-02-25T14:35:59.152Z,55.93
2023-02-25T14:41:25.700Z,56.41
2023-02-25T14:46:30.324Z,56.00
2023-02-25T14:51:53.590Z,53.87
2023-02-25T14:57:15.918Z,37.93
2023-02-25T15:02:36.232Z,32.12
2023-02-25T15:07:52.821Z,31.41
2023-02-25T15:13:26.914Z,38.35
2023-02-25T15:18:28.288Z,41.70
2023-02-25T15:23:50.534Z,42.20
2023-02-25T15:28:55.505Z,40.09
2023-02-25T15:34:21.687Z,37.65
2023-02-25T15:39:56.238Z,38.65
2023-02-25T15:45:29.147Z,39.75
2023-02-25T15:50:43.035Z,39.29
2023-02-25T15:55:44.942Z,38.79
2023-02-25T16:00:46.384Z,40.31
2023-02-25T16:05:48.103Z,40.53
2023-02-25T16:10:52.800Z,40.39
2023-02-25T16:15:57.242Z,39.22
2023-02-25T16:21:04.438Z,39.05
2023-02-25T16:26:36.958Z,39.77
2023-02-25T16:32:08.018Z,39.07
2023-02-25T16:37:30.803Z,39.02
2023-02-25T16:42:33.980Z,39.29
2023-02-25T16:47:39.082Z,39.94
2023-02-25T16:52:47.718Z,39.37
2023-02-25T16:58:20.999Z,39.83
2023-02-25T17:03:26.056Z,40.57
2023-02-25T17:08:27.832Z,40.65
2023-02-25T17:13:34.417Z,41.00
2023-02-25T17:18:48.803Z,41.19
2023-02-25T17:23:51.341Z,41.14
2023-02-25T17:28:57.646Z,41.71
2023-02-25T17:34:03.334Z,40.92
2023-02-25T17:39:08.809Z,39.78
2023-02-25T17:44:39.368Z,39.76
2023-02-25T17:49:40.824Z,39.96
2023-02-25T17:54:47.167Z,40.64
2023-02-25T17:59:56.801Z,40.25
2023-02-25T18:05:10.573Z,40.17
2023-02-25T18:10:47.641Z,39.98
2023-02-25T18:16:28.325Z,40.40
2023-02-25T18:21:30.082Z,40.13
2023-02-25T18:26:31.957Z,41.09
2023-02-25T18:31:34.933Z,42.05
2023-02-25T18:36:36.390Z,42.23
2023-02-25T18:41:37.958Z,42.09
2023-02-25T18:46:39.398Z,42.39
2023-02-25T18:51:41.052Z,42.43
2023-02-25T18:56:42.492Z,42.58
2023-02-25T19:01:44.401Z,43.09
2023-02-25T19:06:47.235Z,43.13
2023-02-25T19:11:48.644Z,43.03
2023-02-25T19:16:50.015Z,43.49
2023-02-25T19:21:51.821Z,43.66
2023-02-25T19:26:53.492Z,43.88
2023-02-25T19:31:55.344Z,43.91
2023-02-25T19:36:56.997Z,44.19
2023-02-25T19:41:58.347Z,44.34
2023-02-25T19:46:59.837Z,44.05
2023-02-25T19:52:01.444Z,44.90
2023-02-25T19:57:03.081Z,44.92
2023-02-25T20:02:04.536Z,45.03
2023-02-25T20:07:06.840Z,45.75
2023-02-25T20:12:08.455Z,45.57
2023-02-25T20:17:10.105Z,45.73
2023-02-25T20:22:11.685Z,45.53
2023-02-25T20:27:13.040Z,45.63
2023-02-25T20:32:14.693Z,45.88
2023-02-25T20:37:22.729Z,46.40
2023-02-25T20:42:28.659Z,46.12
2023-02-25T20:47:35.125Z,45.67
2023-02-25T20:52:37.029Z,46.28
2023-02-25T20:57:38.571Z,46.18
2023-02-25T21:02:39.964Z,46.15
2023-02-25T21:07:41.645Z,45.83
2023-02-25T21:12:44.065Z,45.84
2023-02-25T21:17:45.728Z,45.76
2023-02-25T21:22:48.202Z,45.84
2023-02-25T21:27:50.064Z,46.23
2023-02-25T21:32:51.640Z,47.16
2023-02-25T21:37:53.619Z,46.83
2023-02-25T21:42:56.012Z,47.21
2023-02-25T21:47:57.429Z,47.38
2023-02-25T21:52:58.921Z,46.60
2023-02-25T21:58:00.745Z,46.38
2023-02-25T22:03:02.865Z,46.49
2023-02-25T22:08:06.130Z,46.77
2023-02-25T22:13:08.588Z,47.41
2023-02-25T22:18:10.207Z,47.11
2023-02-25T22:23:11.652Z,47.38
2023-02-25T22:28:13.051Z,48.08
2023-02-25T22:33:14.786Z,47.78
2023-02-25T22:38:16.342Z,47.19
2023-02-25T22:43:17.794Z,47.28
2023-02-25T22:48:19.704Z,46.88
2023-02-25T22:53:21.929Z,46.43
2023-02-25T22:58:26.386Z,46.68
2023-02-25T23:03:28.502Z,46.80
2023-02-25T23:08:30.792Z,46.40
2023-02-25T23:13:32.751Z,46.86
2023-02-25T23:18:34.192Z,46.74
2023-02-25T23:23:39.147Z,46.80
2023-02-25T23:28:41.992Z,47.62
2023-02-25T23:33:43.571Z,47.14
2023-02-25T23:38:45.004Z,47.32
2023-02-25T23:43:46.652Z,47.44
2023-02-25T23:48:48.174Z,47.53
2023-02-25T23:53:54.419Z,47.51
2023-02-25T23:58:56.351Z,47.71
